Terminal Aerodrome Forecast
Issued by NWS Duluth, MN

Home | Current Version | Previous Version | Text Only | Print | Product List | Glossary On
Versions: 1 2 3 4 5 6 7 8 9 10 11 12 13 14 15 16 17 18 19 20 21 22 23 24 25 26 27 28 29 30 31 32
000
FTUS43 KDLH 161723
TAFINL
TAF
KINL 161723Z 1618/1718 12008KT 1SM -SN BKN025
     FM162000 13007KT 5SM -SN OVC022
     FM170300 18005KT P6SM BKN009
     FM170900 VRB03KT 5SM BR BKN009=

USA.gov is the U.S. government's official web portal to all federal, state and local government web resources and services.